Time;durP1;ratioP1;P1;durP2;ratioP2;P2;SDS_P1;SDS_P2;PMS_P1;PMS_P2;Temp;Humidity;BMP_temperature;BMP_pressure;BME280_temperature;BME280_humidity;BME280_pressure;Samples;Min_cycle;Max_cycle;Signal;HPM_P1;HPM_P2
2022/03/16 00:01:38;;;;;;;21.40;14.10;;;;;;;;;;4990727;28;20205;-74
2022/03/16 00:04:05;;;;;;;26.33;18.23;;;;;;;;;;4990771;28;20248;-74
2022/03/16 00:06:32;;;;;;;19.45;13.98;;;;;;;;;;4974287;28;20696;-74
2022/03/16 00:09:01;;;;;;;16.13;13.80;;;;;;;;;;4994365;28;20211;-75
2022/03/16 00:11:28;;;;;;;16.80;13.50;;;;;;;;;;4996663;28;20576;-74
2022/03/16 00:13:55;;;;;;;15.00;11.80;;;;;;;;;;4991655;28;20545;-74
2022/03/16 00:16:22;;;;;;;16.10;13.15;;;;;;;;;;4989573;28;20327;-74
2022/03/16 00:18:49;;;;;;;15.25;12.80;;;;;;;;;;4989633;28;20211;-76
2022/03/16 00:21:17;;;;;;;14.23;11.40;;;;;;;;;;4990212;28;20204;-75
2022/03/16 00:23:44;;;;;;;16.27;12.68;;;;;;;;;;4990038;28;20326;-76
2022/03/16 00:26:12;;;;;;;18.27;12.65;;;;;;;;;;4992754;28;20204;-75
2022/03/16 00:28:39;;;;;;;15.43;12.05;;;;;;;;;;4992940;28;20542;-76
2022/03/16 00:31:07;;;;;;;19.70;12.38;;;;;;;;;;4996652;28;20211;-75
2022/03/16 00:33:34;;;;;;;16.83;11.38;;;;;;;;;;4998626;28;20212;-74
2022/03/16 00:36:01;;;;;;;17.45;15.52;;;;;;;;;;4993127;28;20301;-75
2022/03/16 00:38:28;;;;;;;23.58;15.27;;;;;;;;;;4990881;28;20303;-75
2022/03/16 00:40:55;;;;;;;14.23;11.95;;;;;;;;;;4991092;28;20211;-76
2022/03/16 00:43:24;;;;;;;15.10;11.82;;;;;;;;;;4990928;28;20693;-75
2022/03/16 00:45:51;;;;;;;18.83;12.43;;;;;;;;;;4991279;28;20204;-74
2022/03/16 00:48:18;;;;;;;17.80;13.68;;;;;;;;;;5000891;28;20214;-75
2022/03/16 00:50:45;;;;;;;17.60;12.80;;;;;;;;;;5000135;28;20673;-75
2022/03/16 00:53:12;;;;;;;15.80;11.57;;;;;;;;;;5012758;28;20227;-74
2022/03/16 00:55:39;;;;;;;14.50;12.05;;;;;;;;;;5014119;28;20602;-75
2022/03/16 00:58:07;;;;;;;14.25;12.27;;;;;;;;;;5014359;28;20208;-75
2022/03/16 01:00:35;;;;;;;13.98;11.90;;;;;;;;;;5014679;28;20299;-74
2022/03/16 01:03:02;;;;;;;15.55;11.80;;;;;;;;;;5014064;28;20224;-74
2022/03/16 01:05:29;;;;;;;18.30;12.85;;;;;;;;;;5016450;28;20287;-75
2022/03/16 01:07:56;;;;;;;16.15;12.75;;;;;;;;;;5016337;28;20210;-74
2022/03/16 01:10:24;;;;;;;18.67;12.27;;;;;;;;;;5004324;28;20208;-75
2022/03/16 01:12:53;;;;;;;14.63;11.85;;;;;;;;;;5001864;28;20571;-75
2022/03/16 01:15:23;;;;;;;14.23;12.10;;;;;;;;;;4995004;28;20300;-75
2022/03/16 01:17:51;;;;;;;13.85;11.90;;;;;;;;;;4993527;28;20200;-75
2022/03/16 01:20:19;;;;;;;14.25;12.13;;;;;;;;;;4977179;28;20204;-75
2022/03/16 01:22:46;;;;;;;19.77;12.80;;;;;;;;;;4980274;28;20700;-74
2022/03/16 01:25:14;;;;;;;16.40;13.05;;;;;;;;;;4996258;28;20232;-74
2022/03/16 01:27:41;;;;;;;16.88;12.93;;;;;;;;;;5001830;28;20226;-74
2022/03/16 01:30:08;;;;;;;16.25;12.73;;;;;;;;;;4999909;28;20197;-74
2022/03/16 01:32:35;;;;;;;16.48;13.05;;;;;;;;;;4993163;28;20224;-74
2022/03/16 01:35:05;;;;;;;14.65;12.40;;;;;;;;;;4993633;28;20204;-74
2022/03/16 01:37:32;;;;;;;16.08;13.02;;;;;;;;;;4994006;28;20563;-75
2022/03/16 01:39:59;;;;;;;16.27;11.98;;;;;;;;;;4992915;28;20215;-75
2022/03/16 01:42:26;;;;;;;14.43;12.60;;;;;;;;;;4994398;28;20233;-74
2022/03/16 01:44:54;;;;;;;17.33;13.52;;;;;;;;;;4999558;28;20576;-74
2022/03/16 01:47:22;;;;;;;17.20;14.32;;;;;;;;;;5001247;28;20203;-75
2022/03/16 01:49:50;;;;;;;14.40;12.75;;;;;;;;;;5009633;28;20208;-74
2022/03/16 01:52:20;;;;;;;14.40;11.65;;;;;;;;;;5012611;28;20226;-74
2022/03/16 01:54:48;;;;;;;16.45;12.95;;;;;;;;;;5012953;28;20204;-75
2022/03/16 01:57:16;;;;;;;14.52;11.68;;;;;;;;;;5013523;28;20210;-74
2022/03/16 01:59:44;;;;;;;17.38;12.20;;;;;;;;;;5012822;28;20542;-75
2022/03/16 02:02:11;;;;;;;16.67;12.48;;;;;;;;;;5006618;28;20559;-75
2022/03/16 02:04:39;;;;;;;15.15;12.73;;;;;;;;;;5000945;28;20212;-75
2022/03/16 02:07:06;;;;;;;15.48;11.55;;;;;;;;;;4994898;28;20209;-76
2022/03/16 02:09:35;;;;;;;16.90;12.93;;;;;;;;;;4992066;28;20208;-75
2022/03/16 02:12:02;;;;;;;20.02;14.20;;;;;;;;;;4993403;28;20232;-74
2022/03/16 02:14:29;;;;;;;15.77;12.70;;;;;;;;;;4993412;28;20672;-76
2022/03/16 02:16:58;;;;;;;17.05;13.00;;;;;;;;;;4992420;28;20785;-75
2022/03/16 02:19:26;;;;;;;15.77;12.20;;;;;;;;;;5013242;28;20266;-75
2022/03/16 02:21:56;;;;;;;16.63;13.55;;;;;;;;;;5014475;28;20227;-75
2022/03/16 02:24:24;;;;;;;18.20;13.73;;;;;;;;;;5006651;28;20709;-74
2022/03/16 02:26:51;;;;;;;14.57;11.85;;;;;;;;;;5000625;28;20204;-76
2022/03/16 02:29:19;;;;;;;13.30;11.65;;;;;;;;;;4995887;28;20621;-75
2022/03/16 02:31:46;;;;;;;14.20;11.68;;;;;;;;;;4992909;28;20590;-75
2022/03/16 02:34:13;;;;;;;14.07;11.32;;;;;;;;;;4992776;28;20196;-76
2022/03/16 02:36:40;;;;;;;15.32;11.32;;;;;;;;;;4985362;28;20745;-75
2022/03/16 02:39:07;;;;;;;14.90;11.70;;;;;;;;;;4992451;28;20208;-74
2022/03/16 02:41:36;;;;;;;17.50;13.02;;;;;;;;;;4993123;28;20213;-75
2022/03/16 02:44:03;;;;;;;16.23;12.82;;;;;;;;;;4994603;28;20232;-74
2022/03/16 02:46:30;;;;;;;14.77;12.10;;;;;;;;;;4997287;28;20211;-76
2022/03/16 02:48:57;;;;;;;13.60;12.07;;;;;;;;;;4998791;28;20208;-76
2022/03/16 02:51:25;;;;;;;17.00;12.88;;;;;;;;;;4995699;28;20219;-75
2022/03/16 02:53:53;;;;;;;18.40;14.13;;;;;;;;;;4992669;28;20205;-75
2022/03/16 02:56:20;;;;;;;18.20;14.23;;;;;;;;;;4992522;28;20201;-76
2022/03/16 02:58:49;;;;;;;15.65;12.88;;;;;;;;;;4992618;28;20259;-74
2022/03/16 03:01:16;;;;;;;19.25;13.85;;;;;;;;;;4992853;28;20212;-75
2022/03/16 03:03:44;;;;;;;16.85;14.10;;;;;;;;;;5011085;28;20230;-74
2022/03/16 03:06:11;;;;;;;17.02;13.55;;;;;;;;;;5014336;28;20677;-74
2022/03/16 03:08:38;;;;;;;16.30;13.50;;;;;;;;;;5007044;28;20208;-76
2022/03/16 03:11:05;;;;;;;16.77;13.00;;;;;;;;;;5000394;28;20220;-75
2022/03/16 03:13:32;;;;;;;15.57;13.35;;;;;;;;;;5005283;28;20220;-75
2022/03/16 03:16:00;;;;;;;17.15;12.85;;;;;;;;;;5011646;28;20208;-76
2022/03/16 03:18:28;;;;;;;16.05;12.60;;;;;;;;;;5012129;28;20208;-75
2022/03/16 03:20:55;;;;;;;14.70;13.10;;;;;;;;;;5012124;28;20598;-75
2022/03/16 03:23:22;;;;;;;16.58;13.68;;;;;;;;;;5011631;28;20239;-74
2022/03/16 03:25:49;;;;;;;18.10;13.85;;;;;;;;;;5003987;28;20228;-74
2022/03/16 03:28:16;;;;;;;15.32;12.45;;;;;;;;;;4998457;28;21033;-74
2022/03/16 03:30:43;;;;;;;17.65;13.50;;;;;;;;;;4999044;28;20192;-74
2022/03/16 03:33:12;;;;;;;17.02;13.35;;;;;;;;;;4992367;28;20217;-74
2022/03/16 03:35:39;;;;;;;18.02;14.90;;;;;;;;;;4991302;28;20209;-74
2022/03/16 03:38:06;;;;;;;17.23;13.45;;;;;;;;;;4991737;28;20324;-74
2022/03/16 03:40:33;;;;;;;16.60;13.00;;;;;;;;;;4992315;28;20205;-74
2022/03/16 03:43:00;;;;;;;16.45;12.82;;;;;;;;;;4997927;28;20234;-74
2022/03/16 03:45:27;;;;;;;16.65;14.40;;;;;;;;;;5004261;28;20240;-75
2022/03/16 03:47:54;;;;;;;16.75;12.98;;;;;;;;;;4998937;28;20208;-75
2022/03/16 03:50:23;;;;;;;18.35;13.40;;;;;;;;;;5006976;28;20310;-75
2022/03/16 03:52:51;;;;;;;18.95;15.20;;;;;;;;;;5011232;28;20295;-75
2022/03/16 03:55:18;;;;;;;17.40;15.05;;;;;;;;;;5011035;28;20204;-76
2022/03/16 03:57:45;;;;;;;18.30;14.98;;;;;;;;;;5010110;28;20559;-75
2022/03/16 04:00:13;;;;;;;21.42;15.80;;;;;;;;;;5011292;28;20563;-75
2022/03/16 04:02:40;;;;;;;27.63;16.40;;;;;;;;;;5012256;28;20220;-74
2022/03/16 04:05:07;;;;;;;26.38;16.52;;;;;;;;;;5012943;28;20226;-75
2022/03/16 04:07:36;;;;;;;31.30;19.75;;;;;;;;;;4988561;28;20214;-75
2022/03/16 04:10:03;;;;;;;26.52;17.83;;;;;;;;;;4998728;28;20200;-77
2022/03/16 04:12:30;;;;;;;30.83;18.30;;;;;;;;;;5005214;28;20220;-75
2022/03/16 04:14:57;;;;;;;33.80;19.55;;;;;;;;;;5011105;28;20204;-75
2022/03/16 04:17:24;;;;;;;31.17;20.10;;;;;;;;;;5010798;28;20208;-75
2022/03/16 04:19:51;;;;;;;28.80;19.67;;;;;;;;;;5010821;28;20564;-75
2022/03/16 04:22:19;;;;;;;33.10;20.00;;;;;;;;;;5010967;28;20236;-75
2022/03/16 04:24:47;;;;;;;28.50;18.70;;;;;;;;;;5011636;28;20733;-75
2022/03/16 04:27:15;;;;;;;32.92;20.88;;;;;;;;;;5012612;28;20208;-75
2022/03/16 04:29:42;;;;;;;31.80;17.77;;;;;;;;;;5006573;28;20657;-74
2022/03/16 04:32:09;;;;;;;32.90;20.98;;;;;;;;;;4998513;28;20220;-75
2022/03/16 04:34:36;;;;;;;33.10;20.38;;;;;;;;;;5004108;28;20548;-75
2022/03/16 04:37:05;;;;;;;31.27;20.95;;;;;;;;;;5010402;28;20582;-76
2022/03/16 04:39:32;;;;;;;30.08;18.55;;;;;;;;;;5010208;28;20200;-74
2022/03/16 04:42:01;;;;;;;29.63;19.30;;;;;;;;;;5010540;28;20236;-75
2022/03/16 04:44:28;;;;;;;31.05;19.10;;;;;;;;;;5011072;28;20228;-75
2022/03/16 04:46:55;;;;;;;32.13;18.90;;;;;;;;;;5011573;28;20211;-75
2022/03/16 04:49:22;;;;;;;39.92;20.80;;;;;;;;;;5012392;28;20662;-75
2022/03/16 04:51:49;;;;;;;32.10;18.88;;;;;;;;;;5007185;28;20223;-74
2022/03/16 04:54:17;;;;;;;33.72;20.02;;;;;;;;;;4998419;28;20193;-74
2022/03/16 04:56:44;;;;;;;28.70;19.73;;;;;;;;;;5003464;28;20625;-74
2022/03/16 04:59:13;;;;;;;31.30;19.98;;;;;;;;;;5010389;28;20227;-74
2022/03/16 05:01:40;;;;;;;27.50;18.85;;;;;;;;;;5010245;28;20208;-74
2022/03/16 05:04:07;;;;;;;29.45;18.52;;;;;;;;;;5010238;28;20535;-74
2022/03/16 05:06:34;;;;;;;28.83;17.38;;;;;;;;;;5010797;28;20538;-75
2022/03/16 05:09:01;;;;;;;25.02;17.63;;;;;;;;;;5011249;28;20208;-76
2022/03/16 05:11:29;;;;;;;23.75;17.67;;;;;;;;;;5012268;28;20208;-76
2022/03/16 05:13:57;;;;;;;26.95;17.42;;;;;;;;;;5007690;28;20212;-76
2022/03/16 05:16:25;;;;;;;23.73;16.60;;;;;;;;;;4998303;28;20258;-75
2022/03/16 05:18:52;;;;;;;24.15;16.27;;;;;;;;;;5002784;28;20736;-74
2022/03/16 05:21:20;;;;;;;18.55;14.60;;;;;;;;;;5010047;28;20213;-75
2022/03/16 05:23:47;;;;;;;21.70;15.68;;;;;;;;;;5009794;28;20228;-75
2022/03/16 05:26:14;;;;;;;21.40;16.83;;;;;;;;;;5010175;28;20231;-75
2022/03/16 05:28:42;;;;;;;21.35;15.73;;;;;;;;;;5010669;28;20557;-74
2022/03/16 05:31:09;;;;;;;20.02;15.10;;;;;;;;;;5011016;28;20204;-75
2022/03/16 05:33:37;;;;;;;19.65;14.55;;;;;;;;;;4994559;28;20235;-74
2022/03/16 05:36:05;;;;;;;21.90;14.20;;;;;;;;;;5008559;28;20212;-75
2022/03/16 05:38:32;;;;;;;18.55;14.57;;;;;;;;;;5001722;28;20650;-75
2022/03/16 05:40:59;;;;;;;22.88;14.15;;;;;;;;;;4998834;28;20221;-75
2022/03/16 05:43:27;;;;;;;19.48;13.57;;;;;;;;;;4993662;28;20231;-75
2022/03/16 05:45:54;;;;;;;22.10;14.27;;;;;;;;;;4993853;28;20221;-74
2022/03/16 05:48:21;;;;;;;17.45;13.93;;;;;;;;;;4993734;28;20200;-75
2022/03/16 05:50:50;;;;;;;17.38;13.32;;;;;;;;;;4994330;28;20208;-75
2022/03/16 05:53:17;;;;;;;17.00;13.48;;;;;;;;;;5007545;28;20224;-76
2022/03/16 05:55:44;;;;;;;17.17;13.35;;;;;;;;;;5015320;28;20202;-75
2022/03/16 05:58:11;;;;;;;14.88;13.25;;;;;;;;;;5012110;28;20292;-75
2022/03/16 06:00:42;;;;;;;17.67;13.75;;;;;;;;;;5001090;28;20201;-75
2022/03/16 06:03:11;;;;;;;18.80;13.32;;;;;;;;;;5004458;28;20343;-74
2022/03/16 06:05:38;;;;;;;20.58;14.75;;;;;;;;;;5012951;28;20323;-75
2022/03/16 06:08:07;;;;;;;19.05;14.13;;;;;;;;;;5013187;28;20590;-75
2022/03/16 06:10:34;;;;;;;20.75;15.45;;;;;;;;;;5013150;28;20226;-75
2022/03/16 06:13:02;;;;;;;26.27;16.23;;;;;;;;;;5013220;28;20234;-75
2022/03/16 06:15:30;;;;;;;23.58;15.82;;;;;;;;;;4996406;28;20303;-75
2022/03/16 06:17:58;;;;;;;21.13;15.38;;;;;;;;;;4987287;28;20204;-76
2022/03/16 06:20:26;;;;;;;20.48;15.77;;;;;;;;;;4999661;28;20653;-76
2022/03/16 06:22:53;;;;;;;18.77;14.15;;;;;;;;;;4997546;28;20225;-75
2022/03/16 06:25:22;;;;;;;22.13;14.45;;;;;;;;;;4975315;28;20554;-75
2022/03/16 06:27:49;;;;;;;16.00;13.93;;;;;;;;;;4992136;28;20200;-75
2022/03/16 06:30:26;;;;;;;17.15;12.38;;;;;;;;;;4992465;28;20193;-75
2022/03/16 06:32:54;;;;;;;17.50;12.75;;;;;;;;;;4993651;28;20224;-76
2022/03/16 06:35:21;;;;;;;20.70;13.50;;;;;;;;;;5005009;28;20200;-75
2022/03/16 06:37:48;;;;;;;16.90;13.35;;;;;;;;;;5000034;28;20196;-75
2022/03/16 06:40:15;;;;;;;14.30;11.75;;;;;;;;;;5003226;28;20207;-73
2022/03/16 06:42:48;;;;;;;18.02;13.90;;;;;;;;;;4994157;28;20224;-74
2022/03/16 06:45:15;;;;;;;17.88;13.13;;;;;;;;;;4994702;28;20314;-75
2022/03/16 06:47:42;;;;;;;18.77;13.43;;;;;;;;;;5012434;28;20215;-74
2022/03/16 06:50:10;;;;;;;17.58;13.75;;;;;;;;;;5006200;28;20208;-74
2022/03/16 06:52:38;;;;;;;18.80;14.48;;;;;;;;;;4998234;28;20226;-73
2022/03/16 06:55:06;;;;;;;19.98;13.50;;;;;;;;;;4997304;28;20204;-74
2022/03/16 06:57:33;;;;;;;16.73;12.93;;;;;;;;;;5003994;28;20207;-75
2022/03/16 07:00:02;;;;;;;18.45;14.13;;;;;;;;;;5009893;28;20223;-77
2022/03/16 07:02:29;;;;;;;20.73;14.55;;;;;;;;;;4999053;28;20224;-76
2022/03/16 07:04:58;;;;;;;17.92;13.70;;;;;;;;;;5007086;28;20204;-76
2022/03/16 07:07:26;;;;;;;20.92;14.90;;;;;;;;;;5011686;28;20212;-76
2022/03/16 07:09:53;;;;;;;19.70;14.45;;;;;;;;;;5007793;28;20214;-77
2022/03/16 07:12:20;;;;;;;21.85;16.83;;;;;;;;;;5001672;28;20250;-77
2022/03/16 07:14:48;;;;;;;22.33;16.75;;;;;;;;;;4998394;28;20208;-74
2022/03/16 07:17:16;;;;;;;21.27;16.70;;;;;;;;;;5010044;28;20212;-78
2022/03/16 07:19:43;;;;;;;24.33;18.55;;;;;;;;;;5009586;28;20212;-78
2022/03/16 07:22:10;;;;;;;25.88;18.52;;;;;;;;;;4997646;28;20220;-78
2022/03/16 07:24:37;;;;;;;30.20;18.38;;;;;;;;;;4996461;28;20424;-76
2022/03/16 07:27:06;;;;;;;26.75;18.15;;;;;;;;;;5000568;28;20294;-77
2022/03/16 07:29:34;;;;;;;24.95;18.23;;;;;;;;;;4997572;28;20204;-78
2022/03/16 07:32:01;;;;;;;22.90;16.35;;;;;;;;;;4999357;28;20612;-79
2022/03/16 07:34:29;;;;;;;24.00;15.30;;;;;;;;;;5009930;28;20214;-79
2022/03/16 07:36:56;;;;;;;22.92;15.60;;;;;;;;;;4996500;28;20294;-78
2022/03/16 07:39:24;;;;;;;20.83;14.52;;;;;;;;;;5011648;28;20247;-78
2022/03/16 07:41:51;;;;;;;21.40;15.52;;;;;;;;;;4997833;28;20224;-77
2022/03/16 07:44:18;;;;;;;17.90;13.77;;;;;;;;;;4997362;28;20215;-79
2022/03/16 07:46:45;;;;;;;18.27;14.05;;;;;;;;;;5001939;28;20224;-79
2022/03/16 07:49:12;;;;;;;18.52;13.10;;;;;;;;;;5010672;28;20204;-82
2022/03/16 07:51:41;;;;;;;14.73;11.73;;;;;;;;;;5003543;28;20847;-81
2022/03/16 07:54:08;;;;;;;16.73;13.13;;;;;;;;;;4997460;28;20215;-76
2022/03/16 07:56:35;;;;;;;17.63;12.93;;;;;;;;;;4992807;28;20212;-77
2022/03/16 07:59:02;;;;;;;14.93;11.40;;;;;;;;;;5000388;28;20204;-76
2022/03/16 08:01:29;;;;;;;16.10;12.02;;;;;;;;;;4999543;28;20201;-76
2022/03/16 08:03:57;;;;;;;16.83;12.20;;;;;;;;;;5009202;28;20215;-75
2022/03/16 08:06:24;;;;;;;15.40;12.75;;;;;;;;;;5009498;28;20232;-78
2022/03/16 08:08:53;;;;;;;13.77;10.35;;;;;;;;;;4995922;28;20212;-77
2022/03/16 08:11:20;;;;;;;14.52;11.32;;;;;;;;;;4996821;28;20208;-77
2022/03/16 08:13:47;;;;;;;14.50;10.88;;;;;;;;;;4990469;28;20729;-77
2022/03/16 08:16:14;;;;;;;13.93;12.13;;;;;;;;;;5005528;28;20204;-79
2022/03/16 08:18:41;;;;;;;14.50;11.20;;;;;;;;;;5011132;28;20210;-78
2022/03/16 08:21:08;;;;;;;14.23;11.57;;;;;;;;;;5010079;28;20210;-82
2022/03/16 08:23:36;;;;;;;13.40;11.45;;;;;;;;;;5009437;28;20314;-76
2022/03/16 08:26:04;;;;;;;14.85;12.25;;;;;;;;;;5012633;28;20693;-77
2022/03/16 08:28:31;;;;;;;14.95;11.15;;;;;;;;;;5011027;28;20210;-78
2022/03/16 08:31:01;;;;;;;15.25;12.10;;;;;;;;;;4999438;28;20209;-76
2022/03/16 08:33:28;;;;;;;14.98;12.55;;;;;;;;;;4997923;28;20248;-76
2022/03/16 08:35:57;;;;;;;16.20;12.33;;;;;;;;;;4982677;28;20205;-80
2022/03/16 08:38:24;;;;;;;16.60;12.27;;;;;;;;;;5004834;28;20447;-78
2022/03/16 08:40:51;;;;;;;14.63;12.20;;;;;;;;;;5008253;28;20588;-77
2022/03/16 08:43:20;;;;;;;15.10;12.27;;;;;;;;;;5008623;28;20223;-78
2022/03/16 08:45:47;;;;;;;14.32;12.35;;;;;;;;;;5000510;28;20228;-76
2022/03/16 08:48:15;;;;;;;14.43;11.60;;;;;;;;;;4995724;28;20199;-78
2022/03/16 08:50:43;;;;;;;14.65;11.65;;;;;;;;;;4998359;28;20215;-79
2022/03/16 08:53:11;;;;;;;14.83;11.90;;;;;;;;;;4997806;28;20231;-79
2022/03/16 08:55:39;;;;;;;16.10;13.23;;;;;;;;;;5005582;28;20458;-79
2022/03/16 08:58:06;;;;;;;16.70;12.40;;;;;;;;;;5009638;28;20562;-77
2022/03/16 09:00:34;;;;;;;14.73;12.27;;;;;;;;;;5011150;28;20454;-77
2022/03/16 09:03:02;;;;;;;14.23;12.10;;;;;;;;;;5004388;28;20489;-80
2022/03/16 09:05:29;;;;;;;14.77;11.47;;;;;;;;;;5002994;28;20478;-76
2022/03/16 09:07:56;;;;;;;14.83;11.80;;;;;;;;;;5005262;28;20465;-79
2022/03/16 09:10:24;;;;;;;14.73;12.63;;;;;;;;;;5003158;28;20465;-81
2022/03/16 09:12:51;;;;;;;14.70;11.70;;;;;;;;;;5000090;28;20950;-76
2022/03/16 09:15:18;;;;;;;13.47;11.80;;;;;;;;;;4997655;28;20570;-79
2022/03/16 09:17:46;;;;;;;13.50;11.90;;;;;;;;;;5004956;28;20454;-75
2022/03/16 09:20:13;;;;;;;14.60;11.23;;;;;;;;;;5007535;28;20459;-79
2022/03/16 09:22:41;;;;;;;13.53;12.13;;;;;;;;;;5007903;28;20494;-80
2022/03/16 09:25:08;;;;;;;13.23;11.30;;;;;;;;;;5009280;28;20830;-76
2022/03/16 09:27:36;;;;;;;15.37;11.93;;;;;;;;;;5013014;28;20474;-77
2022/03/16 09:30:03;;;;;;;14.17;11.53;;;;;;;;;;5005533;28;20463;-75
2022/03/16 09:32:33;;;;;;;15.43;10.90;;;;;;;;;;5005507;28;20480;-81
2022/03/16 09:35:02;;;;;;;13.47;11.10;;;;;;;;;;5001665;28;20529;-79
2022/03/16 09:37:29;;;;;;;13.03;11.57;;;;;;;;;;5007022;28;20447;-75
2022/03/16 09:39:56;;;;;;;14.47;12.53;;;;;;;;;;5011448;28;20454;-76
2022/03/16 09:42:24;;;;;;;12.57;11.27;;;;;;;;;;5005012;28;20797;-77
2022/03/16 09:44:54;;;;;;;13.67;11.77;;;;;;;;;;4993939;28;20448;-77
2022/03/16 09:47:23;;;;;;;12.97;10.73;;;;;;;;;;4992898;28;20479;-75
2022/03/16 09:49:52;;;;;;;12.73;10.27;;;;;;;;;;5014337;28;20494;-75
2022/03/16 09:52:20;;;;;;;17.53;10.03;;;;;;;;;;5011053;28;20483;-80
2022/03/16 09:54:48;;;;;;;13.27;10.43;;;;;;;;;;5007043;28;20932;-74
2022/03/16 09:57:15;;;;;;;12.10;9.47;;;;;;;;;;5000085;28;20447;-78
2022/03/16 09:59:43;;;;;;;12.47;10.27;;;;;;;;;;4997767;28;20456;-77
2022/03/16 10:02:16;;;;;;;11.80;9.23;;;;;;;;;;5003902;28;20905;-76
2022/03/16 10:04:43;;;;;;;11.80;9.70;;;;;;;;;;4979490;28;20451;-78
2022/03/16 10:07:10;;;;;;;11.60;10.03;;;;;;;;;;4996717;28;20470;-76
2022/03/16 10:15:04;;;;;;;14.60;9.73;;;;;;;;;;4992466;28;20641;-76
2022/03/16 10:20:20;;;;;;;11.30;9.80;;;;;;;;;;4987041;28;21050;-77
2022/03/16 10:22:54;;;;;;;10.63;9.10;;;;;;;;;;5003768;28;20470;-76
2022/03/16 10:25:22;;;;;;;11.50;10.13;;;;;;;;;;4981911;28;20451;-74
2022/03/16 10:27:50;;;;;;;11.40;10.20;;;;;;;;;;5011119;28;20475;-80
2022/03/16 10:30:19;;;;;;;10.73;9.63;;;;;;;;;;5008542;28;20463;-78
2022/03/16 10:32:53;;;;;;;10.07;8.33;;;;;;;;;;5011072;28;20478;-77
2022/03/16 10:35:21;;;;;;;10.43;9.37;;;;;;;;;;5005014;28;20472;-78
2022/03/16 10:37:48;;;;;;;13.67;10.67;;;;;;;;;;5011284;28;20465;-76
2022/03/16 10:40:19;;;;;;;11.93;10.50;;;;;;;;;;5000147;28;21202;-79
2022/03/16 10:48:13;;;;;;;11.63;10.40;;;;;;;;;;4995738;28;20511;-77
2022/03/16 10:50:41;;;;;;;10.90;9.80;;;;;;;;;;4980751;28;20474;-78
2022/03/16 10:53:08;;;;;;;10.53;9.00;;;;;;;;;;4994369;28;20979;-76
2022/03/16 10:55:36;;;;;;;12.90;10.27;;;;;;;;;;5009551;28;20440;-81
2022/03/16 10:58:07;;;;;;;10.97;9.77;;;;;;;;;;5016148;28;20864;-76
2022/03/16 11:00:35;;;;;;;12.20;10.70;;;;;;;;;;4998055;28;20452;-78
2022/03/16 11:03:03;;;;;;;13.00;10.30;;;;;;;;;;5003211;28;20478;-75
2022/03/16 11:05:31;;;;;;;11.13;9.93;;;;;;;;;;4998566;28;20459;-83
2022/03/16 11:07:59;;;;;;;11.70;10.07;;;;;;;;;;4996087;28;20566;-80
2022/03/16 11:10:27;;;;;;;11.50;10.33;;;;;;;;;;4998048;28;20467;-79
2022/03/16 11:15:36;;;;;;;11.63;10.47;;;;;;;;;;5001762;28;20801;-84
2022/03/16 11:18:04;;;;;;;11.27;9.57;;;;;;;;;;5012263;28;20450;-77
2022/03/16 11:20:32;;;;;;;11.20;9.90;;;;;;;;;;5002509;28;20474;-81
2022/03/16 11:25:51;;;;;;;14.07;11.53;;;;;;;;;;4980633;28;20475;-75
2022/03/16 11:28:25;;;;;;;14.33;10.20;;;;;;;;;;4991737;28;20549;-76
2022/03/16 11:30:54;;;;;;;13.57;12.17;;;;;;;;;;5005791;28;20553;-79
2022/03/16 11:33:21;;;;;;;11.07;9.50;;;;;;;;;;5008302;28;20489;-77
2022/03/16 11:35:50;;;;;;;10.83;9.43;;;;;;;;;;4993115;28;20460;-80
2022/03/16 11:38:18;;;;;;;12.17;10.30;;;;;;;;;;5009389;28;20554;-80
2022/03/16 11:40:47;;;;;;;11.33;10.23;;;;;;;;;;5013310;28;20940;-76
2022/03/16 11:43:15;;;;;;;11.17;10.07;;;;;;;;;;4979299;28;20801;-80
2022/03/16 11:45:43;;;;;;;11.13;10.00;;;;;;;;;;4998809;28;20459;-78
2022/03/16 11:48:25;;;;;;;9.20;8.23;;;;;;;;;;5009210;28;20566;-78
2022/03/16 11:51:07;;;;;;;10.43;9.33;;;;;;;;;;4985650;28;20796;-80
2022/03/16 11:54:05;;;;;;;11.80;9.90;;;;;;;;;;4996404;28;20493;-79
2022/03/16 11:56:44;;;;;;;11.40;10.20;;;;;;;;;;4981077;28;20440;-75
2022/03/16 11:59:29;;;;;;;10.20;8.90;;;;;;;;;;4992819;28;20459;-74
2022/03/16 12:02:06;;;;;;;10.50;9.23;;;;;;;;;;4977312;28;20471;-80
2022/03/16 12:04:34;;;;;;;10.67;9.30;;;;;;;;;;4994994;28;21346;-77
2022/03/16 12:07:02;;;;;;;11.10;8.63;;;;;;;;;;4998530;28;20854;-78
2022/03/16 12:09:37;;;;;;;12.80;10.73;;;;;;;;;;4996023;28;20449;-74
2022/03/16 12:14:57;;;;;;;11.30;9.37;;;;;;;;;;5003301;28;20874;-79
2022/03/16 12:17:24;;;;;;;8.97;8.07;;;;;;;;;;4997476;28;20868;-75
2022/03/16 12:20:07;;;;;;;9.57;8.67;;;;;;;;;;5009471;28;20451;-77
2022/03/16 12:22:37;;;;;;;9.80;8.80;;;;;;;;;;4979006;28;20908;-78
2022/03/16 12:25:19;;;;;;;9.17;8.27;;;;;;;;;;4999009;28;20803;-77
2022/03/16 12:30:29;;;;;;;10.03;9.03;;;;;;;;;;4995831;28;20454;-79
2022/03/16 12:32:57;;;;;;;11.00;9.33;;;;;;;;;;4993244;28;20463;-79
2022/03/16 12:35:25;;;;;;;12.40;9.83;;;;;;;;;;5000279;28;20493;-75
2022/03/16 12:37:52;;;;;;;10.13;9.10;;;;;;;;;;5010812;28;20439;-83
2022/03/16 12:40:22;;;;;;;10.80;9.17;;;;;;;;;;4993966;28;20542;-80
2022/03/16 12:42:53;;;;;;;11.03;9.87;;;;;;;;;;4991387;28;20964;-79
2022/03/16 12:45:22;;;;;;;9.27;8.37;;;;;;;;;;5009130;28;20465;-84
2022/03/16 12:47:55;;;;;;;11.27;9.03;;;;;;;;;;5014575;28;20475;-77
2022/03/16 12:50:27;;;;;;;10.87;9.03;;;;;;;;;;5005535;28;20909;-77
2022/03/16 12:52:54;;;;;;;12.33;9.50;;;;;;;;;;5003510;28;20624;-84
2022/03/16 12:55:21;;;;;;;9.80;8.77;;;;;;;;;;5011990;28;20443;-74
2022/03/16 12:57:55;;;;;;;8.73;7.90;;;;;;;;;;5013521;28;20447;-80
2022/03/16 13:00:23;;;;;;;11.83;10.20;;;;;;;;;;5014584;28;20449;-79
2022/03/16 13:02:50;;;;;;;12.33;9.73;;;;;;;;;;5013712;28;20510;-78
2022/03/16 13:05:20;;;;;;;25.90;16.67;;;;;;;;;;5013364;28;20465;-81
2022/03/16 13:07:47;;;;;;;11.10;9.90;;;;;;;;;;5015535;28;20482;-78
2022/03/16 13:10:14;;;;;;;10.03;9.03;;;;;;;;;;5013239;28;20463;-77
2022/03/16 13:12:56;;;;;;;10.33;9.23;;;;;;;;;;5002863;28;20818;-81
2022/03/16 13:15:26;;;;;;;12.13;10.13;;;;;;;;;;5001224;28;20465;-79
2022/03/16 13:17:55;;;;;;;10.60;7.90;;;;;;;;;;5001295;28;20508;-80
2022/03/16 13:20:24;;;;;;;11.00;9.30;;;;;;;;;;5011580;28;20939;-79
2022/03/16 13:22:51;;;;;;;9.80;8.80;;;;;;;;;;4998449;28;21008;-82
2022/03/16 13:25:18;;;;;;;10.20;9.20;;;;;;;;;;5014121;28;20631;-82
2022/03/16 13:27:52;;;;;;;11.50;9.63;;;;;;;;;;5012375;28;20987;-82
2022/03/16 13:30:22;;;;;;;10.23;8.70;;;;;;;;;;5000150;28;20468;-78
2022/03/16 13:32:52;;;;;;;10.03;8.83;;;;;;;;;;5000291;28;20479;-81
2022/03/16 13:35:22;;;;;;;10.03;9.00;;;;;;;;;;5005882;28;20882;-78
2022/03/16 13:37:50;;;;;;;12.47;10.07;;;;;;;;;;5000300;28;20439;-78
2022/03/16 13:40:21;;;;;;;10.30;8.60;;;;;;;;;;5000456;28;20911;-77
2022/03/16 13:42:48;;;;;;;11.03;9.93;;;;;;;;;;5011108;28;20476;-78
2022/03/16 13:45:18;;;;;;;12.33;9.47;;;;;;;;;;5012968;28;20452;-77
2022/03/16 13:47:46;;;;;;;10.43;9.33;;;;;;;;;;5011208;28;20474;-80
2022/03/16 13:50:23;;;;;;;12.47;9.80;;;;;;;;;;5013700;28;20449;-77
2022/03/16 13:52:53;;;;;;;10.90;9.80;;;;;;;;;;5012284;28;20489;-82
2022/03/16 13:55:21;;;;;;;11.07;9.40;;;;;;;;;;5003730;28;20458;-77
2022/03/16 13:57:48;;;;;;;10.83;9.30;;;;;;;;;;4998890;28;20461;-77
2022/03/16 14:00:16;;;;;;;11.10;9.70;;;;;;;;;;5011152;28;20867;-82
2022/03/16 14:02:44;;;;;;;10.40;9.30;;;;;;;;;;5011208;28;20478;-79
2022/03/16 14:05:15;;;;;;;10.13;9.10;;;;;;;;;;5013123;28;20467;-78
2022/03/16 14:07:45;;;;;;;10.13;9.10;;;;;;;;;;5011479;28;20496;-77
2022/03/16 14:10:13;;;;;;;10.43;9.17;;;;;;;;;;5007627;28;20551;-81
2022/03/16 14:12:42;;;;;;;11.90;9.17;;;;;;;;;;4995553;28;20782;-77
2022/03/16 14:15:16;;;;;;;10.97;9.37;;;;;;;;;;4994152;28;20994;-78
2022/03/16 14:17:45;;;;;;;10.27;9.20;;;;;;;;;;4992431;28;20563;-78
2022/03/16 14:20:13;;;;;;;12.10;8.97;;;;;;;;;;4997801;28;20452;-75
2022/03/16 14:22:41;;;;;;;9.90;8.40;;;;;;;;;;4992215;28;20565;-78
2022/03/16 14:25:18;;;;;;;10.20;8.60;;;;;;;;;;4992668;28;20550;-76
2022/03/16 14:27:48;;;;;;;10.63;9.07;;;;;;;;;;4993452;28;20488;-82
2022/03/16 14:30:16;;;;;;;10.33;8.93;;;;;;;;;;4976828;28;20510;-77
2022/03/16 14:32:43;;;;;;;10.80;9.37;;;;;;;;;;4984698;28;20487;-77
2022/03/16 14:35:11;;;;;;;10.60;9.50;;;;;;;;;;5000514;28;20445;-78
2022/03/16 14:37:38;;;;;;;11.73;9.70;;;;;;;;;;5004604;28;20481;-81
2022/03/16 14:40:06;;;;;;;10.83;9.70;;;;;;;;;;5012803;28;20533;-87
2022/03/16 14:42:34;;;;;;;10.87;9.77;;;;;;;;;;5012508;28;20978;-78
2022/03/16 14:45:02;;;;;;;11.00;9.47;;;;;;;;;;5012766;28;20927;-82
2022/03/16 14:47:29;;;;;;;10.50;9.30;;;;;;;;;;5013242;28;20476;-81
2022/03/16 14:49:58;;;;;;;10.67;9.57;;;;;;;;;;5013783;28;20467;-83
2022/03/16 14:52:26;;;;;;;9.40;8.40;;;;;;;;;;5014654;28;20859;-78